Time;durP1;ratioP1;P1;durP2;ratioP2;P2;SDS_P1;SDS_P2;PMS_P1;PMS_P2;Temp;Humidity;BMP_temperature;BMP_pressure;BME280_temperature;BME280_humidity;BME280_pressure;Samples;Min_cycle;Max_cycle;Signal;HPM_P1;HPM_P2
2021/03/09 00:02:10;;;;;;;2.63;1.63;;;14.50;56.90;;;;;;5014472;28;20064;-57
2021/03/09 00:04:36;;;;;;;3.35;1.60;;;14.50;57.00;;;;;;5032017;28;20075;-57
2021/03/09 00:07:01;;;;;;;3.25;2.15;;;14.70;57.00;;;;;;5031246;28;20049;-56
2021/03/09 00:09:27;;;;;;;2.35;1.60;;;14.50;56.90;;;;;;5031947;28;20060;-57
2021/03/09 00:11:52;;;;;;;3.75;2.00;;;14.50;56.90;;;;;;5031676;28;20033;-57
2021/03/09 00:14:18;;;;;;;3.28;1.90;;;14.50;56.90;;;;;;5032098;28;20037;-56
2021/03/09 00:16:44;;;;;;;8.07;2.20;;;14.40;78.00;;;;;;5032187;28;20163;-57
2021/03/09 00:19:09;;;;;;;2.80;1.70;;;14.50;56.90;;;;;;5014238;28;20022;-58
2021/03/09 00:21:35;;;;;;;4.07;2.22;;;14.40;56.90;;;;;;5032173;28;20017;-58
2021/03/09 00:24:00;;;;;;;2.83;1.60;;;14.40;78.10;;;;;;5032306;28;20029;-56
2021/03/09 00:26:26;;;;;;;3.10;2.08;;;14.50;56.90;;;;;;5032186;28;20511;-57
2021/03/09 00:28:51;;;;;;;3.33;1.70;;;14.40;56.80;;;;;;5032341;28;20032;-56
2021/03/09 00:31:17;;;;;;;3.47;2.00;;;14.40;56.90;;;;;;5032312;28;20076;-56
2021/03/09 00:33:43;;;;;;;2.67;2.28;;;14.60;57.00;;;;;;5032327;28;20025;-56
2021/03/09 00:36:09;;;;;;;3.45;2.20;;;14.40;56.90;;;;;;5032194;28;20044;-56
2021/03/09 00:38:34;;;;;;;4.05;2.15;;;14.40;56.90;;;;;;5032105;28;20021;-57
2021/03/09 00:41:00;;;;;;;2.08;1.67;;;14.40;56.80;;;;;;5013951;28;20104;-57
2021/03/09 00:43:25;;;;;;;3.47;1.85;;;14.40;56.90;;;;;;5031990;28;20041;-56
2021/03/09 00:45:51;;;;;;;2.17;1.88;;;14.40;56.90;;;;;;5013946;28;20415;-57
2021/03/09 00:48:16;;;;;;;3.08;1.98;;;14.30;77.80;;;;;;5013978;28;20064;-57
2021/03/09 00:50:42;;;;;;;2.63;2.03;;;14.30;56.80;;;;;;5013998;28;20109;-57
2021/03/09 00:53:07;;;;;;;4.40;2.45;;;14.30;56.80;;;;;;5031575;28;20018;-56
2021/03/09 00:55:33;;;;;;;2.90;1.92;;;14.30;77.70;;;;;;5031451;28;20113;-57
2021/03/09 00:58:01;;;;;;;3.63;2.30;;;14.30;56.80;;;;;;5031812;28;20029;-56
2021/03/09 01:00:28;;;;;;;2.75;2.17;;;14.30;56.80;;;;;;5031466;28;20100;-57
2021/03/09 01:02:54;;;;;;;3.63;2.30;;;14.30;56.80;;;;;;5031700;28;20030;-56
2021/03/09 01:05:21;;;;;;;2.92;2.25;;;14.30;56.80;;;;;;5031571;28;20356;-57
2021/03/09 01:07:47;;;;;;;3.30;2.22;;;14.30;56.80;;;;;;5031052;28;20132;-57
2021/03/09 01:10:13;;;;;;;3.10;1.85;;;13.90;56.60;;;;;;5013636;28;20109;-57
2021/03/09 01:12:39;;;;;;;2.22;2.03;;;14.30;56.80;;;;;;5031274;28;20033;-57
2021/03/09 01:15:06;;;;;;;3.88;2.20;;;14.30;56.80;;;;;;5031591;28;20033;-56
2021/03/09 01:17:32;;;;;;;2.33;2.10;;;14.30;56.80;;;;;;5013694;28;20023;-56
2021/03/09 01:19:58;;;;;;;3.75;2.17;;;14.50;78.50;;;;;;5031478;28;20472;-56
2021/03/09 01:22:23;;;;;;;3.17;2.10;;;14.20;56.80;;;;;;5031446;28;20084;-56
2021/03/09 01:24:49;;;;;;;4.63;2.58;;;14.30;78.30;;;;;;5033324;28;20476;-57
2021/03/09 01:27:15;;;;;;;2.95;1.70;;;14.20;78.60;;;;;;5034676;28;20018;-57
2021/03/09 01:29:41;;;;;;;2.10;1.90;;;14.20;56.80;;;;;;5034518;28;20032;-57
2021/03/09 01:32:07;;;;;;;2.97;2.58;;;14.20;56.80;;;;;;5034807;28;20026;-59
2021/03/09 01:34:33;;;;;;;3.53;2.10;;;;;;;;;;5000593;28;20112;-57
2021/03/09 01:36:59;;;;;;;3.20;2.03;;;14.20;79.50;;;;;;5034403;28;20048;-56
2021/03/09 01:39:25;;;;;;;3.08;2.17;;;14.10;78.30;;;;;;5017040;28;20026;-57
2021/03/09 01:41:51;;;;;;;3.60;2.42;;;14.20;56.80;;;;;;5034580;28;20365;-57
2021/03/09 01:44:17;;;;;;;4.60;2.15;;;14.20;56.80;;;;;;5034545;28;20017;-57
2021/03/09 01:46:44;;;;;;;4.80;2.97;;;14.20;78.30;;;;;;5034240;28;20026;-57
2021/03/09 01:49:13;;;;;;;2.53;2.00;;;14.10;56.80;;;;;;5034157;28;20027;-57
2021/03/09 01:51:39;;;;;;;2.38;1.83;;;14.20;56.80;;;;;;5034203;28;20029;-56
2021/03/09 01:54:05;;;;;;;2.90;2.00;;;14.10;56.80;;;;;;5034296;28;20017;-55
2021/03/09 01:56:30;;;;;;;2.55;2.20;;;14.20;78.10;;;;;;5034296;28;20025;-57
2021/03/09 01:58:58;;;;;;;4.38;2.60;;;14.10;56.80;;;;;;5034366;28;20018;-57
2021/03/09 02:01:23;;;;;;;3.67;2.35;;;14.10;78.30;;;;;;5016589;28;20033;-53
2021/03/09 02:03:50;;;;;;;2.42;2.22;;;14.10;56.80;;;;;;5034060;28;20018;-57
2021/03/09 02:06:16;;;;;;;3.63;2.83;;;14.50;57.00;;;;;;5034246;28;20069;-57
2021/03/09 02:08:43;;;;;;;2.92;2.40;;;14.10;56.80;;;;;;5016278;28;20022;-56
2021/03/09 02:11:35;;;;;;;3.55;2.47;;;14.00;78.10;;;;;;5034188;28;20109;-56
2021/03/09 02:14:12;;;;;;;3.70;2.50;;;14.10;78.40;;;;;;5034039;28;20495;-57
2021/03/09 02:16:57;;;;;;;3.33;2.92;;;14.10;56.80;;;;;;5034301;28;20175;-57
2021/03/09 02:19:43;;;;;;;4.00;2.72;;;14.00;78.00;;;;;;5034249;28;20048;-56
2021/03/09 02:22:37;;;;;;;3.03;2.38;;;14.10;78.20;;;;;;5033934;28;20725;-57
2021/03/09 02:25:28;;;;;;;2.70;2.22;;;14.00;56.80;;;;;;5033727;28;20471;-56
2021/03/09 02:28:14;;;;;;;3.60;2.65;;;14.20;78.50;;;;;;5026747;28;20071;-55
2021/03/09 02:30:44;;;;;;;3.97;2.42;;;13.90;76.50;;;;;;5002691;28;20077;-56
2021/03/09 02:33:24;;;;;;;3.42;2.60;;;14.00;78.30;;;;;;5033679;28;20105;-55
2021/03/09 02:36:00;;;;;;;2.88;2.15;;;14.10;78.20;;;;;;5033244;28;20040;-57
2021/03/09 02:38:30;;;;;;;3.20;2.67;;;14.00;56.90;;;;;;5033749;28;20104;-57
2021/03/09 02:40:59;;;;;;;4.00;2.47;;;14.00;56.90;;;;;;5015739;28;20075;-57
2021/03/09 02:43:27;;;;;;;3.80;2.85;;;13.80;56.80;;;;;;5016373;28;20017;-56
2021/03/09 02:45:53;;;;;;;3.67;2.53;;;13.90;78.40;;;;;;5033341;28;20025;-57
2021/03/09 02:48:25;;;;;;;4.22;2.75;;;14.40;57.10;;;;;;5033266;28;20030;-57
2021/03/09 02:50:54;;;;;;;5.22;3.03;;;14.00;56.90;;;;;;5015483;28;20029;-56
2021/03/09 02:53:21;;;;;;;3.47;2.60;;;14.00;56.90;;;;;;5033219;28;20053;-56
2021/03/09 02:55:48;;;;;;;3.67;2.53;;;13.90;56.90;;;;;;5033083;28;20531;-57
2021/03/09 02:58:17;;;;;;;3.33;2.55;;;13.70;56.80;;;;;;5032933;28;20041;-57
2021/03/09 03:00:43;;;;;;;3.15;2.85;;;14.00;78.20;;;;;;5015278;28;20094;-57
2021/03/09 03:03:12;;;;;;;4.40;2.67;;;13.90;56.90;;;;;;5033357;28;20021;-57
2021/03/09 03:05:39;;;;;;;3.13;2.60;;;13.90;56.90;;;;;;5033282;28;20033;-56
2021/03/09 03:08:07;;;;;;;3.40;2.47;;;13.90;57.00;;;;;;5032742;28;20077;-57
2021/03/09 03:10:35;;;;;;;4.03;2.95;;;13.90;56.90;;;;;;5032996;28;20021;-57
2021/03/09 03:13:02;;;;;;;4.18;2.70;;;13.90;56.90;;;;;;5033052;28;20021;-57
2021/03/09 03:15:29;;;;;;;3.42;2.80;;;13.90;56.90;;;;;;5032658;28;20087;-57
2021/03/09 03:17:56;;;;;;;4.60;3.13;;;14.10;57.00;;;;;;5033137;28;20037;-57
2021/03/09 03:20:22;;;;;;;3.63;2.67;;;13.90;78.20;;;;;;5032744;28;20025;-57
2021/03/09 03:22:49;;;;;;;3.58;2.65;;;13.80;56.90;;;;;;5032741;28;20379;-58
2021/03/09 03:25:16;;;;;;;3.47;2.85;;;13.70;56.80;;;;;;5032764;28;20064;-57
2021/03/09 03:27:42;;;;;;;3.35;2.60;;;14.30;57.20;;;;;;5032469;28;20030;-55
2021/03/09 03:30:10;;;;;;;3.63;2.90;;;13.90;56.40;;;;;;5032571;28;20029;-57
2021/03/09 03:32:36;;;;;;;4.43;2.67;;;13.80;56.90;;;;;;5032369;28;20052;-56
2021/03/09 03:35:05;;;;;;;3.75;2.88;;;13.90;57.00;;;;;;5032655;28;20079;-57
2021/03/09 03:37:31;;;;;;;4.47;3.47;;;13.80;57.00;;;;;;5032591;28;20029;-57
2021/03/09 03:39:56;;;;;;;4.28;3.05;;;13.80;57.00;;;;;;5032279;28;20024;-57
2021/03/09 03:42:23;;;;;;;4.57;2.75;;;13.80;57.00;;;;;;5014671;28;20026;-55
2021/03/09 03:44:48;;;;;;;3.78;3.20;;;13.80;57.00;;;;;;5032249;28;20064;-57
2021/03/09 03:47:15;;;;;;;4.40;2.60;;;13.80;57.00;;;;;;5031595;28;20472;-57
2021/03/09 03:49:41;;;;;;;4.00;3.10;;;13.80;57.00;;;;;;5032222;28;20031;-56
2021/03/09 03:52:21;;;;;;;4.53;2.83;;;13.80;57.00;;;;;;5032038;28;20101;-57
2021/03/09 03:55:28;;;;;;;4.40;2.67;;;13.80;57.00;;;;;;5031984;28;20048;-57
2021/03/09 03:57:58;;;;;;;3.92;3.00;;;13.80;57.00;;;;;;4970584;28;20109;-56
2021/03/09 04:00:23;;;;;;;4.20;2.78;;;13.70;78.00;;;;;;5023252;28;20037;-57
2021/03/09 04:02:51;;;;;;;5.82;3.35;;;13.80;78.30;;;;;;5031897;28;20032;-56
2021/03/09 04:05:21;;;;;;;4.00;3.20;;;13.70;57.00;;;;;;5032227;28;20029;-56
2021/03/09 04:07:49;;;;;;;5.00;3.25;;;13.60;79.00;;;;;;5031829;28;20087;-57
2021/03/09 04:10:14;;;;;;;3.95;2.97;;;14.00;57.20;;;;;;5032108;28;20033;-58
2021/03/09 04:12:40;;;;;;;3.38;2.90;;;13.80;78.20;;;;;;5032167;28;20029;-57
2021/03/09 04:15:07;;;;;;;5.15;3.38;;;13.80;57.10;;;;;;5031671;28;20029;-57
2021/03/09 04:17:34;;;;;;;4.70;3.33;;;13.70;57.00;;;;;;5031792;28;20024;-57
2021/03/09 04:20:01;;;;;;;3.92;3.05;;;13.70;78.10;;;;;;5013981;28;20029;-57
2021/03/09 04:22:28;;;;;;;4.55;3.38;;;13.70;57.00;;;;;;5031655;28;20472;-56
2021/03/09 04:24:55;;;;;;;4.03;3.05;;;13.60;57.00;;;;;;5031970;28;20229;-58
2021/03/09 04:27:21;;;;;;;3.47;3.13;;;14.00;57.30;;;;;;5032000;28;20017;-57
2021/03/09 04:29:56;;;;;;;3.63;2.97;;;13.70;57.10;;;;;;5031653;28;20025;-57
2021/03/09 04:32:23;;;;;;;3.53;2.75;;;13.70;57.10;;;;;;5031575;28;20021;-56
2021/03/09 04:34:55;;;;;;;3.75;3.10;;;13.70;57.10;;;;;;5031840;28;20115;-56
2021/03/09 04:37:22;;;;;;;5.00;3.53;;;13.50;57.00;;;;;;5031823;28;20057;-57
2021/03/09 04:39:49;;;;;;;4.57;3.28;;;13.70;57.20;;;;;;5031848;28;20041;-56
2021/03/09 04:42:15;;;;;;;3.47;3.05;;;13.70;57.20;;;;;;5031646;28;20033;-56
2021/03/09 04:44:40;;;;;;;3.80;2.83;;;13.70;57.20;;;;;;5013996;28;20026;-57
2021/03/09 04:47:07;;;;;;;3.80;3.17;;;13.60;57.10;;;;;;5013840;28;20109;-57
2021/03/09 04:49:35;;;;;;;3.90;3.13;;;13.70;57.20;;;;;;5031604;28;20029;-56
2021/03/09 04:52:02;;;;;;;4.50;3.63;;;13.60;78.10;;;;;;5031803;28;20349;-57
2021/03/09 04:54:28;;;;;;;4.03;3.47;;;13.70;78.20;;;;;;5031702;28;20063;-55
2021/03/09 04:56:53;;;;;;;5.43;3.40;;;13.60;57.20;;;;;;5031639;28;20034;-56
2021/03/09 04:59:19;;;;;;;5.13;3.45;;;13.70;57.30;;;;;;5032839;28;20040;-57
2021/03/09 05:01:46;;;;;;;6.43;3.53;;;13.40;57.10;;;;;;5035502;28;20472;-57
2021/03/09 05:04:11;;;;;;;4.72;3.42;;;13.60;57.20;;;;;;5035146;28;20033;-56
2021/03/09 05:06:37;;;;;;;5.50;3.72;;;13.90;57.40;;;;;;5035158;28;20057;-57
2021/03/09 05:09:04;;;;;;;5.68;3.78;;;13.60;57.30;;;;;;5035320;28;20104;-58
2021/03/09 05:11:30;;;;;;;4.60;3.55;;;13.60;57.40;;;;;;5035409;28;20387;-56
2021/03/09 05:13:56;;;;;;;5.38;3.53;;;13.60;57.30;;;;;;5035125;28;20018;-57
2021/03/09 05:16:22;;;;;;;4.18;3.35;;;13.60;57.30;;;;;;5034998;28;20048;-57
2021/03/09 05:18:48;;;;;;;5.32;3.97;;;13.60;57.40;;;;;;5034956;28;20021;-57
2021/03/09 05:21:14;;;;;;;3.60;3.13;;;13.60;57.30;;;;;;5034946;28;20033;-57
2021/03/09 05:23:39;;;;;;;4.88;4.00;;;13.60;57.40;;;;;;5034850;28;20057;-57
2021/03/09 05:26:05;;;;;;;4.35;3.50;;;13.60;57.40;;;;;;5034757;28;20087;-57
2021/03/09 05:28:31;;;;;;;5.22;3.53;;;13.60;57.40;;;;;;5034934;28;20017;-56
2021/03/09 05:30:56;;;;;;;5.07;3.38;;;13.60;57.40;;;;;;5034651;28;20040;-57
2021/03/09 05:33:22;;;;;;;4.60;3.78;;;13.60;57.30;;;;;;5017005;28;20093;-57
2021/03/09 05:35:48;;;;;;;4.72;3.58;;;13.60;57.40;;;;;;5034511;28;20047;-57
2021/03/09 05:38:13;;;;;;;3.30;3.00;;;13.60;57.40;;;;;;5017115;28;20040;-56
2021/03/09 05:40:39;;;;;;;5.22;3.78;;;13.60;57.40;;;;;;5034505;28;20052;-56
2021/03/09 05:43:05;;;;;;;4.28;3.58;;;13.40;57.30;;;;;;5034758;28;20024;-56
2021/03/09 05:45:31;;;;;;;3.63;3.25;;;13.60;57.50;;;;;;5016724;28;20026;-55
2021/03/09 05:47:58;;;;;;;4.05;3.58;;;13.60;57.50;;;;;;5034402;28;20408;-56
2021/03/09 05:50:24;;;;;;;3.60;3.30;;;13.60;57.60;;;;;;5034662;28;20036;-57
2021/03/09 05:52:49;;;;;;;4.90;3.50;;;13.60;57.60;;;;;;5034297;28;20369;-56
2021/03/09 05:55:15;;;;;;;3.45;3.05;;;13.60;57.60;;;;;;5016492;28;20037;-56
2021/03/09 05:57:41;;;;;;;3.47;2.97;;;13.70;57.80;;;;;;5034503;28;20020;-56
2021/03/09 06:00:09;;;;;;;4.03;3.33;;;13.60;57.80;;;;;;5034090;28;20053;-56
2021/03/09 06:02:35;;;;;;;3.50;3.00;;;13.60;57.80;;;;;;5034246;28;20079;-57
2021/03/09 06:05:05;;;;;;;5.15;3.00;;;13.60;58.00;;;;;;5034441;28;20041;-56
2021/03/09 06:07:31;;;;;;;3.78;3.20;;;13.70;58.50;;;;;;5033955;28;20046;-55
2021/03/09 06:10:03;;;;;;;3.50;2.78;;;13.80;58.40;;;;;;5033503;28;20033;-56
2021/03/09 06:12:28;;;;;;;3.13;2.58;;;13.90;58.30;;;;;;5034254;28;20033;-55
2021/03/09 06:15:02;;;;;;;3.58;2.60;;;13.90;78.60;;;;;;5034126;28;20033;-56
2021/03/09 06:17:35;;;;;;;4.38;2.63;;;14.00;58.40;;;;;;5034205;28;20037;-55
2021/03/09 06:20:02;;;;;;;4.20;2.50;;;14.10;58.50;;;;;;5034060;28;20025;-56
2021/03/09 06:22:39;;;;;;;2.70;2.35;;;14.20;58.30;;;;;;5015993;28;20029;-56
2021/03/09 06:25:11;;;;;;;2.50;1.90;;;14.30;58.30;;;;;;5033989;28;20036;-55
2021/03/09 06:27:37;;;;;;;2.70;1.98;;;14.30;58.20;;;;;;5034046;28;20044;-56
2021/03/09 06:30:06;;;;;;;2.47;2.05;;;14.20;58.10;;;;;;5033928;28;20026;-55
2021/03/09 06:32:43;;;;;;;1.95;1.80;;;14.50;58.10;;;;;;5033629;28;20025;-56
2021/03/09 06:35:29;;;;;;;2.80;2.05;;;14.50;58.00;;;;;;5033354;28;20026;-55
2021/03/09 06:38:15;;;;;;;3.10;2.30;;;14.60;57.40;;;;;;5022868;28;20037;-56
2021/03/09 06:40:41;;;;;;;2.28;2.03;;;14.60;57.90;;;;;;5015717;28;20018;-56
2021/03/09 06:43:15;;;;;;;3.92;1.90;;;14.30;57.70;;;;;;5033561;28;20033;-56
2021/03/09 06:45:41;;;;;;;2.88;2.22;;;14.50;57.90;;;;;;5033565;28;20080;-54
2021/03/09 06:48:21;;;;;;;2.70;1.98;;;14.50;57.80;;;;;;5033296;28;20034;-55
2021/03/09 06:50:46;;;;;;;;;;;14.50;57.70;;;;;;5033594;28;20490;-56
2021/03/09 06:53:12;;;;;;;3.25;2.08;;;14.50;57.60;;;;;;5033293;28;20000;-56
2021/03/09 06:55:38;;;;;;;3.10;2.20;;;14.40;57.50;;;;;;5033023;28;20425;-53
2021/03/09 06:58:06;;;;;;;4.70;2.10;;;14.40;57.60;;;;;;5032879;28;20021;-55
2021/03/09 07:00:32;;;;;;;5.82;2.22;;;14.60;78.40;;;;;;5032856;28;20104;-56
2021/03/09 07:02:58;;;;;;;2.70;1.85;;;14.30;57.90;;;;;;5032691;28;20108;-54
2021/03/09 07:05:23;;;;;;;4.72;2.03;;;14.40;57.90;;;;;;5031799;28;20052;-54
2021/03/09 07:07:49;;;;;;;3.47;2.30;;;14.30;57.80;;;;;;5013941;28;20061;-54
2021/03/09 07:10:17;;;;;;;2.00;1.70;;;14.20;57.70;;;;;;5032393;28;20029;-52
2021/03/09 07:12:44;;;;;;;4.55;2.13;;;14.30;57.70;;;;;;5032020;28;20022;-55
2021/03/09 07:15:13;;;;;;;3.92;1.90;;;14.30;57.70;;;;;;5032167;28;20061;-56
2021/03/09 07:17:39;;;;;;;2.92;1.80;;;14.20;57.70;;;;;;5014547;28;20021;-54
2021/03/09 07:20:14;;;;;;;3.10;1.67;;;14.10;57.80;;;;;;5016218;28;20180;-52
2021/03/09 07:22:41;;;;;;;2.65;1.63;;;14.20;57.90;;;;;;5031812;28;20369;-52
2021/03/09 07:25:13;;;;;;;8.50;2.10;;;14.20;57.90;;;;;;5032866;28;20092;-54
2021/03/09 07:27:46;;;;;;;6.05;1.83;;;14.30;58.00;;;;;;5032759;28;20115;-54
2021/03/09 07:30:14;;;;;;;2.20;1.50;;;14.30;58.40;;;;;;5032322;28;20085;-53
2021/03/09 07:32:43;;;;;;;3.28;1.83;;;14.30;58.50;;;;;;5031651;28;20031;-55
2021/03/09 07:35:10;;;;;;;7.05;1.90;;;14.40;58.50;;;;;;5031465;28;20038;-51
2021/03/09 07:37:38;;;;;;;4.15;1.63;;;14.40;58.50;;;;;;5031663;28;20026;-53
2021/03/09 07:40:11;;;;;;;5.75;1.67;;;14.70;58.70;;;;;;5031999;28;20024;-54
2021/03/09 07:42:38;;;;;;;4.75;1.77;;;14.50;58.50;;;;;;5032479;28;20029;-52
2021/03/09 07:45:04;;;;;;;7.68;1.67;;;14.50;58.40;;;;;;5032363;28;20021;-55
2021/03/09 07:47:30;;;;;;;3.03;1.58;;;12.40;77.30;;;;;;5032263;28;20053;-54
2021/03/09 07:49:57;;;;;;;6.55;2.00;;;14.50;78.50;;;;;;5032342;28;20542;-53
2021/03/09 07:52:25;;;;;;;4.38;1.63;;;14.60;57.90;;;;;;5032351;28;20404;-55
2021/03/09 07:55:03;;;;;;;4.03;1.85;;;14.50;58.40;;;;;;5031768;28;20112;-55
2021/03/09 07:57:33;;;;;;;6.35;1.60;;;14.60;58.50;;;;;;5032270;28;20032;-54
2021/03/09 08:00:02;;;;;;;2.25;1.13;;;14.50;58.50;;;;;;5032205;28;20021;-55
2021/03/09 08:02:41;;;;;;;11.32;1.60;;;14.50;58.50;;;;;;5031957;28;20021;-53
2021/03/09 08:05:13;;;;;;;5.25;1.30;;;14.40;79.00;;;;;;5031953;28;20446;-53
2021/03/09 08:07:54;;;;;;;1.67;1.20;;;14.50;58.50;;;;;;5031854;28;20064;-52
2021/03/09 08:10:28;;;;;;;3.88;1.65;;;14.40;58.50;;;;;;5031822;28;20026;-53
2021/03/09 08:13:24;;;;;;;3.92;1.10;;;14.40;58.40;;;;;;5032021;28;20030;-53
2021/03/09 08:15:50;;;;;;;2.85;1.30;;;14.50;58.40;;;;;;5018675;28;20085;-54
2021/03/09 08:18:19;;;;;;;2.30;1.10;;;14.50;58.40;;;;;;5031789;28;20506;-54
2021/03/09 08:20:48;;;;;;;4.07;1.25;;;14.40;58.40;;;;;;5031694;28;20472;-56
2021/03/09 08:23:35;;;;;;;3.88;1.30;;;14.40;58.50;;;;;;5031634;28;20022;-55
2021/03/09 08:26:06;;;;;;;7.65;1.75;;;14.40;58.40;;;;;;5031582;28;20021;-55
2021/03/09 08:28:39;;;;;;;8.50;1.45;;;14.40;59.20;;;;;;5031894;28;20021;-53
2021/03/09 08:31:16;;;;;;;7.70;1.30;;;14.40;58.60;;;;;;5031627;28;20495;-54
2021/03/09 08:33:46;;;;;;;1.77;1.38;;;14.40;58.50;;;;;;5033639;28;20031;-54
2021/03/09 08:36:24;;;;;;;6.28;1.30;;;14.30;78.90;;;;;;5035584;28;20030;-54
2021/03/09 08:39:05;;;;;;;3.55;1.10;;;14.40;58.50;;;;;;5036192;28;20065;-52
2021/03/09 08:41:37;;;;;;;2.38;1.30;;;14.40;58.60;;;;;;5035826;28;20045;-55
2021/03/09 08:44:17;;;;;;;4.32;1.30;;;14.40;58.60;;;;;;5035465;28;20030;-55
2021/03/09 08:47:05;;;;;;;3.95;1.30;;;14.40;58.50;;;;;;5035531;28;20021;-55
2021/03/09 08:49:34;;;;;;;4.07;1.33;;;14.40;58.50;;;;;;5035294;28;20498;-55
2021/03/09 08:52:09;;;;;;;2.65;1.33;;;14.50;78.90;;;;;;5035772;28;20044;-53
2021/03/09 08:54:42;;;;;;;2.00;0.98;;;14.40;78.70;;;;;;5035383;28;20052;-54
2021/03/09 08:57:28;;;;;;;3.00;0.70;;;14.40;58.50;;;;;;5017814;28;20071;-54
2021/03/09 09:00:01;;;;;;;3.58;1.05;;;14.50;58.40;;;;;;5035016;28;20029;-56
2021/03/09 09:02:27;;;;;;;3.10;1.25;;;14.50;58.40;;;;;;5035357;28;20072;-54
2021/03/09 09:05:06;;;;;;;3.15;1.02;;;14.50;58.40;;;;;;5035348;28;20030;-54
2021/03/09 09:07:36;;;;;;;3.13;0.77;;;14.50;58.30;;;;;;5035342;28;20057;-55
2021/03/09 09:10:14;;;;;;;4.75;1.10;;;14.50;58.30;;;;;;5035183;28;20036;-56
2021/03/09 09:12:45;;;;;;;3.33;0.95;;;14.50;58.20;;;;;;5035158;28;20167;-56
2021/03/09 09:15:21;;;;;;;1.33;0.70;;;14.60;58.20;;;;;;5034858;28;20124;-53
2021/03/09 09:17:53;;;;;;;3.20;0.90;;;14.70;58.10;;;;;;5035186;28;20107;-53
2021/03/09 09:20:45;;;;;;;2.00;0.80;;;14.70;58.00;;;;;;5035279;28;20053;-56
2021/03/09 09:23:16;;;;;;;1.98;0.68;;;14.40;78.20;;;;;;5017048;28;20029;-56
2021/03/09 09:25:45;;;;;;;1.40;0.63;;;14.80;57.80;;;;;;5034685;28;20021;-56
2021/03/09 09:28:23;;;;;;;1.40;0.70;;;14.80;57.70;;;;;;5034612;28;20499;-57
2021/03/09 09:30:49;;;;;;;4.75;1.05;;;14.90;57.70;;;;;;5034981;28;20052;-56
2021/03/09 09:33:16;;;;;;;1.48;0.65;;;14.90;57.60;;;;;;5034638;28;20032;-56
2021/03/09 09:35:43;;;;;;;1.58;0.80;;;14.80;57.40;;;;;;5035028;28;20041;-55
2021/03/09 09:38:11;;;;;;;2.03;0.60;;;14.90;57.50;;;;;;5034564;28;20033;-56
2021/03/09 09:40:40;;;;;;;1.35;0.52;;;14.80;57.40;;;;;;5034444;28;20074;-54
2021/03/09 09:43:13;;;;;;;3.00;0.57;;;14.80;57.60;;;;;;5034542;28;20026;-56
2021/03/09 09:45:43;;;;;;;2.28;0.90;;;14.80;57.60;;;;;;5033435;28;20052;-56
2021/03/09 09:48:23;;;;;;;1.83;0.60;;;14.70;57.70;;;;;;5034479;28;20048;-56
2021/03/09 09:50:48;;;;;;;;;;;14.70;57.70;;;;;;5034926;28;20556;-57
2021/03/09 09:53:29;;;;;;;2.22;0.70;;;14.70;57.80;;;;;;5034091;28;20000;-53
2021/03/09 09:55:56;;;;;;;1.08;0.60;;;14.70;57.80;;;;;;5034260;28;20033;-57
2021/03/09 09:58:22;;;;;;;0.82;0.40;;;14.70;57.90;;;;;;5034070;28;20434;-57
2021/03/09 10:00:55;;;;;;;0.95;0.60;;;14.80;57.90;;;;;;5034081;28;20056;-55
2021/03/09 10:03:21;;;;;;;3.15;0.82;;;14.70;57.70;;;;;;5034112;28;20026;-57
2021/03/09 10:05:47;;;;;;;1.40;0.68;;;14.80;57.90;;;;;;5034336;28;20080;-55
2021/03/09 10:08:33;;;;;;;4.13;0.63;;;14.70;57.80;;;;;;5033984;28;20056;-56
2021/03/09 10:11:03;;;;;;;1.02;0.40;;;14.70;57.80;;;;;;5033967;28;20499;-56
2021/03/09 10:13:29;;;;;;;1.35;0.52;;;14.70;57.90;;;;;;5034240;28;20460;-54
2021/03/09 10:15:54;;;;;;;1.15;0.43;;;14.70;58.00;;;;;;5033984;28;20061;-56
2021/03/09 10:18:25;;;;;;;1.23;0.52;;;14.60;57.80;;;;;;5033816;28;20372;-56
2021/03/09 10:21:16;;;;;;;1.77;0.60;;;14.70;57.80;;;;;;5033846;28;20473;-56
2021/03/09 10:23:57;;;;;;;1.95;0.50;;;14.70;57.80;;;;;;5033672;28;20018;-56
2021/03/09 10:26:49;;;;;;;1.83;0.50;;;14.60;57.70;;;;;;5033615;28;20052;-56
2021/03/09 10:29:22;;;;;;;0.60;0.30;;;14.60;57.70;;;;;;5031026;28;20041;-56
2021/03/09 10:31:52;;;;;;;1.60;0.50;;;14.60;57.60;;;;;;5033815;28;20064;-56
2021/03/09 10:34:20;;;;;;;1.83;0.40;;;14.70;57.70;;;;;;5033760;28;20499;-56
2021/03/09 10:37:05;;;;;;;1.23;0.40;;;14.70;57.60;;;;;;5033576;28;20026;-57
2021/03/09 10:39:36;;;;;;;1.83;0.38;;;14.60;57.60;;;;;;5033388;28;20296;-56
2021/03/09 10:42:24;;;;;;;1.75;0.65;;;14.60;57.50;;;;;;5033498;28;20030;-55
2021/03/09 10:44:49;;;;;;;1.38;0.57;;;14.60;57.50;;;;;;5033361;28;20060;-55
2021/03/09 10:47:15;;;;;;;1.15;0.43;;;14.60;57.60;;;;;;5033241;28;20056;-56
2021/03/09 10:49:40;;;;;;;0.47;0.35;;;14.60;57.60;;;;;;5033229;28;20124;-56
2021/03/09 10:52:08;;;;;;;1.08;0.52;;;14.60;57.50;;;;;;5033131;28;20026;-56
2021/03/09 10:54:36;;;;;;;1.27;0.45;;;14.70;57.60;;;;;;5032778;28;20048;-57
2021/03/09 10:57:03;;;;;;;1.40;0.55;;;14.60;57.50;;;;;;5033021;28;20036;-56
2021/03/09 10:59:29;;;;;;;0.68;0.40;;;14.60;57.50;;;;;;5033102;28;20056;-54
2021/03/09 11:01:54;;;;;;;1.02;0.45;;;14.60;57.50;;;;;;5032907;28;20022;-56
2021/03/09 11:04:20;;;;;;;0.43;0.28;;;14.90;57.60;;;;;;5032392;28;20383;-57
2021/03/09 11:06:46;;;;;;;1.27;0.30;;;14.60;57.50;;;;;;5032957;28;20080;-56
2021/03/09 11:09:11;;;;;;;2.30;0.50;;;14.60;57.40;;;;;;5032823;28;20050;-57
2021/03/09 11:11:37;;;;;;;1.83;0.60;;;14.60;57.40;;;;;;5013881;28;20028;-56
2021/03/09 11:14:03;;;;;;;4.18;0.75;;;14.60;57.40;;;;;;5031813;28;20032;-57
2021/03/09 11:16:30;;;;;;;2.33;0.40;;;14.60;57.40;;;;;;5032210;28;20041;-57
2021/03/09 11:18:57;;;;;;;0.50;0.30;;;14.60;57.50;;;;;;5032694;28;20022;-57
2021/03/09 11:21:23;;;;;;;0.90;0.40;;;14.60;57.40;;;;;;5032877;28;20068;-57
2021/03/09 11:23:51;;;;;;;0.52;0.35;;;14.60;57.40;;;;;;5032474;28;20030;-57
2021/03/09 11:26:18;;;;;;;1.20;0.70;;;14.60;57.40;;;;;;5032850;28;20328;-57
2021/03/09 11:28:44;;;;;;;0.47;0.30;;;14.60;57.40;;;;;;5032846;28;20390;-55
2021/03/09 11:31:10;;;;;;;0.30;0.25;;;14.60;57.30;;;;;;5032577;28;20087;-56
2021/03/09 11:33:36;;;;;;;1.63;0.38;;;14.50;57.30;;;;;;5032614;28;20022;-55
2021/03/09 11:36:01;;;;;;;1.45;0.38;;;14.60;78.10;;;;;;5032440;28;20033;-57
2021/03/09 11:38:27;;;;;;;0.50;0.50;;;14.60;77.80;;;;;;5014727;28;20403;-56
2021/03/09 11:40:52;;;;;;;0.40;0.30;;;14.50;57.30;;;;;;5032382;28;20025;-54
2021/03/09 11:43:18;;;;;;;0.45;0.40;;;14.50;57.20;;;;;;5032570;28;20022;-57
2021/03/09 11:45:43;;;;;;;0.17;0.17;;;14.50;57.20;;;;;;5032266;28;20074;-55
2021/03/09 11:48:09;;;;;;;0.73;0.25;;;14.60;57.30;;;;;;5032507;28;20034;-57
2021/03/09 11:50:35;;;;;;;0.80;0.40;;;14.60;57.30;;;;;;5032566;28;20037;-56
2021/03/09 11:53:00;;;;;;;0.28;0.22;;;14.60;57.30;;;;;;5032151;28;20040;-55
2021/03/09 11:55:27;;;;;;;0.93;0.38;;;14.80;78.20;;;;;;5031879;28;20049;-56
2021/03/09 11:57:53;;;;;;;0.93;0.30;;;14.50;57.20;;;;;;5032127;28;20018;-57
2021/03/09 12:00:21;;;;;;;0.57;0.20;;;14.60;57.20;;;;;;5031613;28;20026;-56
2021/03/09 12:02:47;;;;;;;2.05;0.35;;;14.70;77.90;;;;;;5032060;28;20414;-56
2021/03/09 12:05:12;;;;;;;0.75;0.20;;;14.60;57.10;;;;;;5031946;28;20018;-56
2021/03/09 12:07:39;;;;;;;1.50;0.28;;;14.60;57.10;;;;;;5031394;28;20117;-56
2021/03/09 12:10:06;;;;;;;0.40;0.20;;;14.60;57.10;;;;;;5032147;28;20083;-57
2021/03/09 12:12:31;;;;;;;0.95;0.55;;;14.60;57.00;;;;;;5031874;28;20104;-55
2021/03/09 12:14:57;;;;;;;0.50;0.38;;;14.50;56.90;;;;;;5031986;28;20124;-56
2021/03/09 12:17:22;;;;;;;0.30;0.20;;;14.30;56.80;;;;;;5032109;28;20134;-56
2021/03/09 12:19:48;;;;;;;1.17;0.30;;;14.50;56.90;;;;;;5032152;28;20532;-56
2021/03/09 12:22:13;;;;;;;0.28;0.20;;;14.60;77.80;;;;;;5031784;28;20096;-56
2021/03/09 12:24:39;;;;;;;0.43;0.40;;;14.50;56.30;;;;;;5031877;28;20549;-55
2021/03/09 12:27:05;;;;;;;1.30;0.20;;;14.60;77.40;;;;;;5031677;28;20056;-56
2021/03/09 12:29:30;;;;;;;0.28;0.28;;;14.50;56.80;;;;;;5031631;28;20133;-57
2021/03/09 12:31:56;;;;;;;0.43;0.17;;;14.50;56.80;;;;;;5031368;28;20045;-54
2021/03/09 12:34:22;;;;;;;0.88;0.20;;;14.50;56.80;;;;;;5031830;28;20029;-55
2021/03/09 12:36:47;;;;;;;0.77;0.20;;;14.50;56.80;;;;;;5031582;28;20029;-54
2021/03/09 12:39:13;;;;;;;1.85;0.30;;;14.50;56.80;;;;;;5031515;28;20025;-55
2021/03/09 12:41:39;;;;;;;0.57;0.20;;;14.50;56.80;;;;;;5031578;28;20029;-57
2021/03/09 12:44:04;;;;;;;1.83;0.20;;;14.50;77.60;;;;;;5031838;28;20025;-55
2021/03/09 12:46:30;;;;;;;1.27;0.20;;;14.50;77.30;;;;;;5031437;28;20511;-54
2021/03/09 12:48:56;;;;;;;1.45;0.30;;;14.50;56.60;;;;;;5031742;28;20035;-55
2021/03/09 12:51:21;;;;;;;0.55;0.25;;;14.70;77.90;;;;;;5031677;28;20018;-57
2021/03/09 12:53:47;;;;;;;0.20;0.20;;;14.50;56.60;;;;;;5031327;28;20026;-56
2021/03/09 12:56:13;;;;;;;0.30;0.25;;;14.80;56.70;;;;;;5031567;28;20026;-53
2021/03/09 12:58:38;;;;;;;0.77;0.20;;;14.50;56.40;;;;;;5031719;28;20029;-54